| time (UTC) | temp F | wind direction | speed MPH | gust MPH | rain 1hr in | rain 24hr in | rain mn in | humidity % | barometer mb |
| 20260505084802 | 50 | 158 | 0.0 | 0.0 | 0.00 | 0.00 | 0.00 | 85 | 1011.9 |
| 20260505083302 | 50 | 158 | 0.0 | 0.0 | 0.00 | 0.00 | 0.00 | 85 | 1011.9 |
| 20260505081802 | 50 | 158 | 0.0 | 0.0 | 0.00 | 0.00 | 0.00 | 85 | 1011.9 |
| 20260505080302 | 51 | 158 | 0.0 | 0.0 | 0.00 | 0.00 | 0.00 | 85 | 1011.9 |
| 20260505074802 | 51 | 158 | 0.0 | 0.0 | 0.00 | 0.00 | 0.00 | 85 | 1011.5 |
| 20260505073302 | 52 | 225 | 0.0 | 0.0 | 0.00 | 0.00 | 0.00 | 85 | 1011.5 |
| 20260505070303 | 53 | 225 | 0.0 | 0.0 | 0.00 | 0.00 | 0.00 | 85 | 1011.2 |
| 20260505065303 | 54 | 225 | 0.0 | 0.0 | 0.00 | 0.00 | 0.00 | 85 | 1010.8 |
| 20260505063802 | 54 | 248 | 0.0 | 2.0 | 0.00 | 0.00 | 0.00 | 85 | 1010.8 |
| 20260505055303 | 57 | 180 | 0.0 | 0.0 | 0.00 | 0.00 | 0.00 | 81 | 1010.5 |
| 20260505052304 | 58 | 203 | 1.0 | 2.0 | 0.00 | 0.00 | 0.00 | 79 | 1010.2 |
| 20260505050802 | 59 | 315 | 0.0 | 0.0 | 0.00 | 0.00 | 0.00 | 75 | 1010.2 |
| 20260505041302 | 63 | 135 | 0.0 | 0.0 | 0.00 | 0.00 | 0.00 | 67 | 1009.5 |
| 20260505035802 | 64 | 225 | 1.0 | 2.0 | 0.00 | 0.00 | 0.00 | 67 | 1009.1 |
| 20260505034302 | 66 | 225 | 1.0 | 1.0 | 0.00 | 0.00 | 0.00 | 64 | 1008.8 |
| 20260505032803 | 67 | 180 | 0.0 | 1.0 | 0.00 | 0.00 | 0.00 | 62 | 1008.8 |
| 20260505031302 | 69 | 225 | 1.0 | 2.0 | 0.00 | 0.00 | 0.00 | 60 | 1008.5 |
| 20260505025802 | 70 | 248 | 1.0 | 2.0 | 0.00 | 0.00 | 0.00 | 58 | 1008.1 |
| 20260505024302 | 71 | 180 | 2.0 | 2.0 | 0.00 | 0.00 | 0.00 | 56 | 1008.1 |
| 20260505022802 | 72 | 225 | 1.0 | 2.0 | 0.00 | 0.00 | 0.00 | 54 | 1008.1 |
| 20260505021302 | 73 | 180 | 1.0 | 2.0 | 0.00 | 0.00 | 0.00 | 52 | 1008.1 |
| 20260505015802 | 74 | 180 | 3.0 | 3.0 | 0.00 | 0.00 | 0.00 | 50 | 1008.1 |
| 20260505014302 | 75 | 225 | 2.0 | 4.0 | 0.00 | 0.00 | 0.00 | 46 | 1008.1 |
| 20260505012802 | 77 | 180 | 2.0 | 4.0 | 0.00 | 0.00 | 0.00 | 42 | 1008.1 |
| 20260505011302 | 76 | 203 | 2.0 | 6.0 | 0.00 | 0.00 | 0.00 | 42 | 1008.1 |
| 20260505004302 | 80 | 203 | 2.0 | 4.0 | 0.00 | 0.00 | 0.00 | 39 | 1008.1 |
| 20260505002801 | 79 | 135 | 1.0 | 5.0 | 0.00 | 0.00 | 0.00 | 38 | 1007.8 |
| 20260505001302 | 80 | 315 | 1.0 | 4.0 | 0.00 | 0.00 | 0.00 | 38 | 1008.1 |
| 20260504235802 | 79 | 338 | 1.0 | 5.0 | 0.00 | 0.00 | 0.00 | 40 | 1008.1 |
| 20260504234302 | 78 | 135 | 3.0 | 6.0 | 0.00 | 0.00 | 0.00 | 40 | 1008.1 |
| 20260504232802 | 78 | 270 | 2.0 | 6.0 | 0.00 | 0.00 | 0.00 | 42 | 1008.1 |
| 20260504231303 | 79 | 203 | 3.0 | 6.0 | 0.00 | 0.00 | 0.00 | 40 | 1008.5 |
| 20260504225802 | 79 | 293 | 3.0 | 6.0 | 0.00 | 0.00 | 0.00 | 37 | 1008.5 |
| 20260504224302 | 80 | 270 | 2.0 | 5.0 | 0.00 | 0.00 | 0.00 | 38 | 1008.5 |
| 20260504222803 | 80 | 338 | 1.0 | 5.0 | 0.00 | 0.00 | 0.00 | 38 | 1008.8 |
| 20260504221801 | 79 | 293 | 1.0 | 4.0 | 0.00 | 0.00 | 0.00 | 37 | 1008.8 |
| 20260504220302 | 79 | 113 | 2.0 | 4.0 | 0.00 | 0.00 | 0.00 | 37 | 1008.8 |
| 20260504214802 | 80 | 225 | 3.0 | 4.0 | 0.00 | 0.00 | 0.00 | 36 | 1008.8 |
| 20260504213302 | 79 | 180 | 2.0 | 4.0 | 0.00 | 0.00 | 0.00 | 36 | 1009.1 |
| 20260504211802 | 79 | 225 | 4.0 | 5.0 | 0.00 | 0.00 | 0.00 | 38 | 1009.1 |
| 20260504210302 | 78 | 203 | 3.0 | 5.0 | 0.00 | 0.00 | 0.00 | 40 | 1009.1 |
| 20260504204802 | 78 | 113 | 2.0 | 3.0 | 0.00 | 0.00 | 0.00 | 40 | 1009.1 |
| 20260504203301 | 79 | 203 | 3.0 | 6.0 | 0.00 | 0.00 | 0.00 | 38 | 1009.1 |
| 20260504201802 | 77 | 180 | 1.0 | 4.0 | 0.00 | 0.00 | 0.00 | 42 | 1009.1 |
| 20260504200402 | 78 | 203 | 2.0 | 4.0 | 0.00 | 0.00 | 0.00 | 41 | 1009.5 |
| 20260504194802 | 76 | 23 | 2.0 | 3.0 | 0.00 | 0.00 | 0.00 | 41 | 1009.5 |
| 20260504193302 | 77 | 270 | 3.0 | 4.0 | 0.00 | 0.00 | 0.00 | 43 | 1009.5 |
| 20260504191802 | 75 | 0 | 3.0 | 4.0 | 0.00 | 0.00 | 0.00 | 44 | 1009.5 |
| 20260504184802 | 74 | 293 | 4.0 | 4.0 | 0.00 | 0.00 | 0.00 | 45 | 1009.8 |
| 20260504183302 | 73 | 338 | 2.0 | 4.0 | 0.00 | 0.00 | 0.00 | 47 | 1009.8 |
| 20260504181802 | 73 | 270 | 3.0 | 3.0 | 0.00 | 0.00 | 0.00 | 50 | 1009.8 |
| 20260504180302 | 72 | 203 | 3.0 | 3.0 | 0.00 | 0.00 | 0.00 | 51 | 1009.8 |
| 20260504174802 | 71 | 45 | 3.0 | 4.0 | 0.00 | 0.00 | 0.00 | 50 | 1009.8 |
| 20260504173302 | 71 | 203 | 2.0 | 2.0 | 0.00 | 0.00 | 0.00 | 54 | 1009.8 |
| 20260504171802 | 69 | 113 | 2.0 | 3.0 | 0.00 | 0.00 | 0.00 | 55 | 1009.8 |
| 20260504170301 | 69 | 203 | 2.0 | 4.0 | 0.00 | 0.00 | 0.00 | 56 | 1009.8 |
| 20260504150802 | 62 | 23 | 0.0 | 0.0 | 0.00 | 0.00 | 0.00 | 67 | 1009.1 |
| 20260504140802 | 50 | 68 | 0.0 | 0.0 | 0.00 | 0.00 | 0.00 | 85 | 1008.8 |
| 20260504130802 | 48 | 90 | 0.0 | 0.0 | 0.00 | 0.00 | 0.00 | 85 | 1008.5 |
| 20260504120302 | 49 | 113 | 0.0 | 0.0 | 0.00 | 0.00 | 0.00 | 85 | 1008.5 |